METAR (acronimo di METeorological Air Report) è un messaggio meteo emesso nella maggior parte dei casi in ambito aeroportuale

LIPF - Ferrara, It
Distanza dalla Stazione: 8 km
Ultimo Aggiornamento: Martedì 28 Gennaio 2020 18:55 CET
Dati non Recenti
Bruma, Parzialmente Nuvoloso
Bruma, Parzialmente Nuvoloso
 Wind from Ovest-Nord-Ovest
Vento: Ovest-Nord-Ovest 13 km/h
Temperatura: 8°C
Wind Chill: 6°C
Punto di Rugiada: 7°C
Umidità: 93%
Barometro: 1005 hPa
Condizioni: Bruma
Nuvole: Parzialmente Nuvoloso
Visibilità: 3 km
2020/01/28 17:55 LIPF 281755Z 29007KT 2500 BR NSC 08/07 Q1005
LIPE - Bologna Borgo Panigale, It
Distanza dalla Stazione: 46 km
Ultimo Aggiornamento: Martedì 28 Gennaio 2020 19:50 CET
Bruma, Parzialmente Nuvoloso
Bruma, Parzialmente Nuvoloso
 Wind from Sud-Ovest
Vento: Sud-Ovest 9 km/h
Temperatura: 6°C
Wind Chill: 4°C
Punto di Rugiada: 5°C
Umidità: 93%
Barometro: 1006 hPa
Condizioni: Bruma
Nuvole: Parzialmente Nuvoloso
Visibilità: 3 km
2020/01/28 18:50 LIPE 281850Z 23005KT 2500 BR NSC 06/05 Q1006
LIMF - Torino Caselle, It
Distanza dalla Stazione: 320 km
Ultimo Aggiornamento: Martedì 28 Gennaio 2020 19:50 CET
Bruma, Parzialmente Nuvoloso
Bruma, Parzialmente Nuvoloso
 Wind from Nord
Vento: Nord 7 km/h
Temperatura: 6°C
Wind Chill: 4°C
Punto di Rugiada: 4°C
Umidità: 87%
Barometro: 1007 hPa
Condizioni: Bruma
Nuvole: Parzialmente Nuvoloso
Visibilità: 4 km
Nuvole nel Dettaglio: Parzialmente Nuvoloso 3962 m
2020/01/28 18:50 LIMF 281850Z 01004KT 4000 BR SCT130 06/04 Q1007
 
LIML - Milano Malpensa, It
Distanza dalla Stazione: 249 km
Ultimo Aggiornamento: Martedì 28 Gennaio 2020 19:50 CET
Parzialmente Nuvoloso
Parzialmente Nuvoloso
 Wind from Ovest-Sud-Ovest
Vento: Ovest-Sud-Ovest 9 km/h
Temperatura: 7°C
Wind Chill: 6°C
Punto di Rugiada: 5°C
Umidità: 87%
Barometro: 1007 hPa
Nuvole: Parzialmente Nuvoloso
Visibilità: 6 km
2020/01/28 18:50 LIML 281850Z 24005KT 6000 NSC 07/05 Q1007 NOSIG
LIME - Bergamo Orio al Serio, It
Distanza dalla Stazione: 181 km
Ultimo Aggiornamento: Martedì 28 Gennaio 2020 19:50 CET
Bruma, Parzialmente Nuvoloso
Bruma, Parzialmente Nuvoloso
 Wind from Ovest-Sud-Ovest
Vento: Ovest-Sud-Ovest 9 km/h
Temperatura: 5°C
Wind Chill: 3°C
Punto di Rugiada: 5°C
Umidità: 100%
Barometro: 1006 hPa
Condizioni: Bruma
Nuvole: Parzialmente Nuvoloso
Visibilità: 4 km
2020/01/28 18:50 LIME 281850Z 25005KT 4000 BR NSC 05/05 Q1006 NOSIG
LIPZ - Venezia Tessera, It
Distanza dalla Stazione: 93 km
Ultimo Aggiornamento: Martedì 28 Gennaio 2020 19:50 CET
Bruma, Parzialmente Nuvoloso
Bruma, Parzialmente Nuvoloso
 Wind from Ovest
Vento: Ovest 11 km/h
Temperatura: 7°C
Wind Chill: 5°C
Punto di Rugiada: 6°C
Umidità: 93%
Barometro: 1004 hPa
Condizioni: Bruma
Nuvole: Parzialmente Nuvoloso
Visibilità: 3 km
2020/01/28 18:50 LIPZ 281850Z 26006KT 2500 BR NSC 07/06 Q1004 NOSIG
 
LIVT - Trieste, It
Distanza dalla Stazione: 179 km
Ultimo Aggiornamento: Martedì 28 Gennaio 2020 18:55 CET
Dati non Recenti
Parzialmente Nuvoloso
Parzialmente Nuvoloso
 Wind from varies
Vento: variabile 0 km/h
Temperatura: 11°C
Punto di Rugiada: 10°C
Umidità: 94%
Barometro: 1003 hPa
Nuvole: Parzialmente Nuvoloso
Visibilità: 10 km
Nuvole nel Dettaglio: Parzialmente Nuvoloso 914 m
2020/01/28 17:55 LIVT 281755Z /////KT 9999 SCT030 11/10 Q1003 RMK BKN SCT060 QUK / QUL / VIS MAR 10 KM VIS MIN 9999
LIMJ - Genova, It
Distanza dalla Stazione: 229 km
Ultimo Aggiornamento: Martedì 28 Gennaio 2020 19:50 CET
Sereno
Sereno
 Wind from varies
Vento: variabile 4 km/h
Temperatura: 12°C
Punto di Rugiada: 8°C
Umidità: 77%
Barometro: 1006 hPa
Condizioni: Sereno
Visibilità: superiore a 10 km
2020/01/28 18:50 LIMJ 281850Z VRB02KT CAVOK 12/08 Q1006
LIRQ - Firenze Amerigo Vespucci, It
Distanza dalla Stazione: 119 km
Ultimo Aggiornamento: Martedì 28 Gennaio 2020 19:50 CET
Pioviggine, Prevalentemente Nuvoloso
Pioviggine, Prevalentemente Nuvoloso
 Wind from Sud-Ovest
Vento: Sud-Ovest 19 km/h
Temperatura: 14°C
Punto di Rugiada: 7°C
Umidità: 63%
Barometro: 1009 hPa
Condizioni: Pioviggine
Nuvole: Prevalentemente Nuvoloso
Visibilità: 10 km
Nuvole nel Dettaglio: Prevalentemente Nuvoloso 1219 m
2020/01/28 18:50 LIRQ 281850Z 23010KT 210V270 9999 DZ BKN040 14/07 Q1009
 
LIPY - Ancona, It
Distanza dalla Stazione: 189 km
Ultimo Aggiornamento: Martedì 28 Gennaio 2020 19:50 CET
Qualche Nuvola
Qualche Nuvola
 Wind from Ovest-Sud-Ovest
Vento: Ovest-Sud-Ovest 17 km/h
Temperatura: 15°C
Punto di Rugiada: 6°C
Umidità: 55%
Barometro: 1006 hPa
Nuvole: Qualche Nuvola
Visibilità: 10 km
Nuvole nel Dettaglio: Qualche Nuvola 1219 m
2020/01/28 18:50 LIPY 281850Z 25009KT 9999 FEW040 15/06 Q1006
LIBP - Pescara, It
Distanza dalla Stazione: 333 km
Ultimo Aggiornamento: Martedì 28 Gennaio 2020 19:50 CET
Sereno
Sereno
 Wind from Sud-Ovest
Vento: Sud-Ovest 24 km/h
Temperatura: 16°C
Punto di Rugiada: 5°C
Umidità: 48%
Barometro: 1008 hPa
Condizioni: Sereno
Visibilità: superiore a 10 km
2020/01/28 18:50 LIBP 281850Z 22013KT CAVOK 16/05 Q1008
LIRF - Roma-Fiumicino, It
Distanza dalla Stazione: 334 km
Ultimo Aggiornamento: Martedì 28 Gennaio 2020 19:50 CET
Prevalentemente Nuvoloso
Prevalentemente Nuvoloso
 Wind from Sud-Sud-Ovest
Vento: Sud-Sud-Ovest 11 km/h
Temperatura: 15°C
Punto di Rugiada: 11°C
Umidità: 77%
Barometro: 1013 hPa
Nuvole: Prevalentemente Nuvoloso
Visibilità: 10 km
Nuvole nel Dettaglio: Parzialmente Nuvoloso 1067 m
Parzialmente Nuvoloso 1372 m
Prevalentemente Nuvoloso 1524 m
2020/01/28 18:50 LIRF 281850Z 20006KT 9999 SCT035 SCT045 BKN050 15/11 Q1013 NOSIG
 
LIRN - Napoli Capodichino, It
Distanza dalla Stazione: 494 km
Ultimo Aggiornamento: Martedì 28 Gennaio 2020 19:50 CET
Parzialmente Nuvoloso
Parzialmente Nuvoloso
 Wind from Ovest-Sud-Ovest
Vento: Ovest-Sud-Ovest 22 km/h
Temperatura: 14°C
Punto di Rugiada: 10°C
Umidità: 77%
Barometro: 1015 hPa
Nuvole: Parzialmente Nuvoloso
Visibilità: 10 km
Nuvole nel Dettaglio: Qualche Nuvola 610 m
Parzialmente Nuvoloso 1524 m
2020/01/28 18:50 LIRN 281850Z 25012KT 210V270 9999 FEW020 SCT050 14/10 Q1015 NOSIG
LIBD - Bari Palese, It
Distanza dalla Stazione: 594 km
Ultimo Aggiornamento: Martedì 28 Gennaio 2020 19:50 CET
Sereno
Sereno
 Wind from Sud-Ovest
Vento: Sud-Ovest 20 km/h
Temperatura: 14°C
Punto di Rugiada: 6°C
Umidità: 59%
Barometro: 1013 hPa
Condizioni: Sereno
Visibilità: superiore a 10 km
2020/01/28 18:50 LIBD 281850Z 22011KT CAVOK 14/06 Q1013
LIBG - Taranto Grottaglie, It
Distanza dalla Stazione: 670 km
Ultimo Aggiornamento: Martedì 28 Gennaio 2020 19:50 CET
Sereno
Sereno
 Wind from Ovest-Sud-Ovest
Vento: Ovest-Sud-Ovest 15 km/h
Temperatura: 14°C
Punto di Rugiada: 9°C
Umidità: 72%
Barometro: 1014 hPa
Condizioni: Sereno
Visibilità: superiore a 10 km
2020/01/28 18:50 LIBG 281850Z 25008KT CAVOK 14/09 Q1014
 
LICR - Reggio Calabria, It
Distanza dalla Stazione: 819 km
Ultimo Aggiornamento: Martedì 28 Gennaio 2020 19:50 CET
Parzialmente Nuvoloso
Parzialmente Nuvoloso
 Wind from Nord-Est
Vento: Nord-Est 19 km/h
Temperatura: 14°C
Punto di Rugiada: 8°C
Umidità: 67%
Barometro: 1019 hPa
Nuvole: Parzialmente Nuvoloso
Visibilità: 10 km
Nuvole nel Dettaglio: Parzialmente Nuvoloso 1219 m
2020/01/28 18:50 LICR 281850Z 05010KT 020V080 9999 SCT040 14/08 Q1019
LICJ - Palermo Punta Raisi, It
Distanza dalla Stazione: 762 km
Ultimo Aggiornamento: Martedì 28 Gennaio 2020 19:50 CET
Parzialmente Nuvoloso
Parzialmente Nuvoloso
 Wind from Sud-Sud-Ovest
Vento: Sud-Sud-Ovest 24 km/h
Temperatura: 15°C
Punto di Rugiada: 8°C
Umidità: 63%
Barometro: 1019 hPa
Nuvole: Parzialmente Nuvoloso
Visibilità: 10 km
Nuvole nel Dettaglio: Parzialmente Nuvoloso 762 m
2020/01/28 18:50 LICJ 281850Z 20013KT 9999 SCT025 15/08 Q1019
LICC - Catania Fontanarossa, It
Distanza dalla Stazione: 866 km
Ultimo Aggiornamento: Martedì 28 Gennaio 2020 19:50 CET
Sereno
Sereno
 Wind from Ovest
Vento: Ovest 19 km/h
Temperatura: 13°C
Punto di Rugiada: 8°C
Umidità: 72%
Barometro: 1020 hPa
Condizioni: Sereno
Visibilità: superiore a 10 km
2020/01/28 18:50 LICC 281850Z 28010KT CAVOK 13/08 Q1020
 
LIEE - Cagliari Elmas, It
Distanza dalla Stazione: 655 km
Ultimo Aggiornamento: Martedì 28 Gennaio 2020 19:50 CET
Qualche Nuvola
Qualche Nuvola
 Wind from Ovest-Nord-Ovest
Vento: Ovest-Nord-Ovest 17 km/h
Temperatura: 15°C
Punto di Rugiada: 11°C
Umidità: 77%
Barometro: 1018 hPa
Nuvole: Qualche Nuvola
Visibilità: 10 km
Nuvole nel Dettaglio: Qualche Nuvola 1219 m
2020/01/28 18:50 LIEE 281850Z 29009KT 9999 FEW040 15/11 Q1018
LIEO - Olbia, It
Distanza dalla Stazione: 463 km
Ultimo Aggiornamento: Martedì 28 Gennaio 2020 19:50 CET
Sereno
Sereno
 Wind from Ovest-Sud-Ovest
Vento: Ovest-Sud-Ovest 28 km/h, Raffica: 52 km/h
Temperatura: 14°C
Punto di Rugiada: 6°C
Umidità: 59%
Barometro: 1016 hPa
Condizioni: Sereno
Visibilità: superiore a 10 km
2020/01/28 18:50 LIEO 281850Z 25015G28KT CAVOK 14/06 Q1016
LICG - Pantelleria, It
Distanza dalla Stazione: 893 km
Ultimo Aggiornamento: Martedì 28 Gennaio 2020 19:50 CET
Sereno
Sereno
 Wind from Ovest-Sud-Ovest
Vento: Ovest-Sud-Ovest 17 km/h
Temperatura: 13°C
Punto di Rugiada: 9°C
Umidità: 77%
Barometro: 1023 hPa
Condizioni: Sereno
Visibilità: superiore a 10 km
2020/01/28 18:50 LICG 281850Z 24009KT CAVOK 13/09 Q1023